Time;durP1;ratioP1;P1;durP2;ratioP2;P2;SDS_P1;SDS_P2;PMS_P1;PMS_P2;Temp;Humidity;BMP_temperature;BMP_pressure;BME280_temperature;BME280_humidity;BME280_pressure;Samples;Min_cycle;Max_cycle;Signal;HPM_P1;HPM_P2
2022/01/25 00:10:36;;;;;;;;;;;3.80;99.90;;;;;;5076279;28;20048;-82
2022/01/25 00:26:37;;;;;;;1.17;1.10;;;3.80;99.90;;;;;;5072144;28;20132;-83
2022/01/25 00:29:15;;;;;;;1.63;1.50;;;3.80;99.90;;;;;;5072125;28;20040;-83
2022/01/25 00:31:43;;;;;;;1.13;1.05;;;3.80;99.90;;;;;;5058548;28;20227;-83
2022/01/25 00:34:09;;;;;;;1.02;1.02;;;3.70;99.90;;;;;;5077028;28;20154;-82
2022/01/25 00:36:35;;;;;;;1.40;1.27;;;3.80;99.90;;;;;;5073909;28;20033;-83
2022/01/25 00:39:01;;;;;;;1.63;1.52;;;3.80;99.90;;;;;;5076320;28;20124;-83
2022/01/25 00:41:27;;;;;;;1.60;1.35;;;3.80;99.90;;;;;;5079242;28;20116;-83
2022/01/25 00:43:54;;;;;;;2.10;1.70;;;3.80;99.90;;;;;;5078471;28;20037;-83
2022/01/25 00:46:21;;;;;;;3.22;2.25;;;3.80;99.90;;;;;;5070612;28;20033;-83
2022/01/25 00:48:51;;;;;;;3.58;2.05;;;3.80;99.90;;;;;;5067998;28;20402;-83
2022/01/25 00:54:05;;;;;;;2.20;2.00;;;3.80;99.90;;;;;;5078560;28;20124;-83
2022/01/25 00:56:46;;;;;;;1.50;1.40;;;3.80;99.90;;;;;;5076620;28;20041;-83
2022/01/25 00:59:18;;;;;;;0.90;0.90;;;3.70;99.90;;;;;;5076945;28;20101;-83
2022/01/25 01:01:46;;;;;;;2.13;1.63;;;3.80;99.90;;;;;;5067942;28;20053;-83
2022/01/25 01:04:12;;;;;;;1.40;1.30;;;3.80;99.90;;;;;;5073502;28;20051;-83
2022/01/25 01:06:40;;;;;;;2.33;2.00;;;3.80;99.90;;;;;;5069317;28;20064;-83
2022/01/25 01:09:10;;;;;;;1.30;1.20;;;3.80;99.90;;;;;;5072338;28;20040;-83
2022/01/25 01:11:42;;;;;;;2.20;1.77;;;3.70;99.90;;;;;;5074625;28;20052;-83
2022/01/25 01:14:27;;;;;;;2.08;1.88;;;3.70;99.90;;;;;;5072655;28;20110;-83
2022/01/25 01:17:33;;;;;;;2.25;1.67;;;3.70;99.90;;;;;;5066083;28;20063;-83
2022/01/25 01:30:43;;;;;;;1.23;1.17;;;3.70;99.90;;;;;;5072396;28;20049;-82
2022/01/25 01:39:18;;;;;;;1.15;1.05;;;3.70;99.90;;;;;;5076772;28;20052;-82
2022/01/25 01:44:24;;;;;;;0.80;0.80;;;3.70;99.90;;;;;;5067887;28;20049;-82
2022/01/25 01:47:11;;;;;;;3.97;2.15;;;3.70;99.90;;;;;;5080605;28;20063;-82
2022/01/25 01:49:43;;;;;;;2.47;1.50;;;3.70;99.90;;;;;;5080372;28;20052;-82
2022/01/25 01:52:10;;;;;;;3.33;2.42;;;3.70;99.90;;;;;;5074530;28;20044;-83
2022/01/25 01:54:36;;;;;;;2.10;1.27;;;3.70;99.90;;;;;;5063789;28;20124;-82
2022/01/25 01:57:03;;;;;;;3.38;2.38;;;3.70;99.90;;;;;;5080656;28;20036;-83
2022/01/25 01:59:29;;;;;;;2.15;1.95;;;3.70;99.90;;;;;;5072592;28;20044;-82
2022/01/25 02:01:54;;;;;;;2.35;1.35;;;3.60;99.90;;;;;;5073965;28;20043;-82
2022/01/25 02:04:20;;;;;;;2.17;1.83;;;3.60;99.90;;;;;;5079244;28;20045;-82
2022/01/25 02:06:46;;;;;;;1.15;1.15;;;3.70;99.90;;;;;;5082091;28;20044;-82
2022/01/25 02:09:12;;;;;;;2.10;1.90;;;3.70;99.90;;;;;;5080129;28;20032;-82
2022/01/25 02:11:39;;;;;;;2.03;1.92;;;3.70;99.90;;;;;;5062555;28;20052;-82
2022/01/25 02:14:08;;;;;;;1.75;1.60;;;3.60;99.90;;;;;;5078401;28;20389;-82
2022/01/25 02:24:44;;;;;;;2.70;1.63;;;3.60;99.90;;;;;;5077143;28;20049;-83
2022/01/25 02:27:10;;;;;;;2.70;1.27;;;3.60;99.90;;;;;;5062318;28;20045;-82
2022/01/25 02:29:36;;;;;;;0.80;0.80;;;3.60;99.90;;;;;;5077669;28;20052;-82
2022/01/25 02:32:02;;;;;;;2.45;1.35;;;3.60;99.90;;;;;;5081243;28;20101;-82
2022/01/25 02:34:28;;;;;;;0.93;0.93;;;3.60;99.90;;;;;;5059573;28;20045;-83
2022/01/25 02:37:01;;;;;;;0.80;0.80;;;3.60;99.90;;;;;;5061580;28;20119;-83
2022/01/25 02:39:27;;;;;;;1.00;0.97;;;3.60;99.90;;;;;;5057365;28;20033;-83
2022/01/25 02:41:53;;;;;;;1.38;1.27;;;3.70;99.90;;;;;;5076287;28;20036;-83
2022/01/25 02:44:24;;;;;;;1.23;1.13;;;3.60;99.90;;;;;;5078710;28;20033;-83
2022/01/25 02:49:27;;;;;;;1.17;1.10;;;3.70;99.90;;;;;;5077773;28;20377;-81
2022/01/25 02:51:53;;;;;;;1.00;1.00;;;3.80;99.90;;;;;;5073040;28;20048;-82
2022/01/25 02:54:18;;;;;;;2.35;1.85;;;3.60;99.90;;;;;;5077606;28;20044;-82
2022/01/25 02:56:45;;;;;;;1.20;1.13;;;3.60;99.90;;;;;;5063721;28;20492;-82
2022/01/25 02:59:12;;;;;;;1.15;1.08;;;3.60;99.90;;;;;;5073996;28;20116;-82
2022/01/25 03:01:39;;;;;;;1.42;1.30;;;3.60;99.90;;;;;;5060587;28;20053;-83
2022/01/25 03:04:06;;;;;;;1.38;1.13;;;3.60;99.90;;;;;;5072006;28;20063;-83
2022/01/25 03:06:32;;;;;;;1.45;1.35;;;3.60;99.90;;;;;;5080969;28;20127;-83
2022/01/25 03:08:58;;;;;;;1.77;1.45;;;3.60;99.90;;;;;;5052711;28;20041;-82
2022/01/25 03:11:25;;;;;;;2.20;1.60;;;3.60;99.90;;;;;;5052878;28;20056;-82
2022/01/25 03:13:55;;;;;;;4.28;1.70;;;3.60;99.90;;;;;;5077655;28;20060;-82
2022/01/25 03:16:37;;;;;;;3.15;2.28;;;3.70;99.90;;;;;;5069294;28;20036;-82
2022/01/25 03:19:27;;;;;;;2.17;1.50;;;3.60;99.90;;;;;;5065782;28;20060;-82
2022/01/25 03:21:50;;;;;;;0.95;0.95;;;3.60;99.90;;;;;;5072794;28;20098;-82
2022/01/25 03:24:16;;;;;;;1.30;1.15;;;3.60;99.90;;;;;;5075150;28;20032;-82
2022/01/25 03:26:41;;;;;;;1.27;1.10;;;3.60;99.90;;;;;;5067309;28;20052;-82
2022/01/25 03:29:07;;;;;;;1.17;1.10;;;3.60;99.90;;;;;;5079347;28;20037;-82
2022/01/25 03:31:33;;;;;;;3.60;2.50;;;3.60;99.90;;;;;;5080595;28;20060;-82
2022/01/25 03:33:59;;;;;;;7.47;2.78;;;3.60;99.90;;;;;;5056980;28;20551;-82
2022/01/25 03:36:24;;;;;;;4.18;1.38;;;3.60;99.90;;;;;;5072935;28;20062;-82
2022/01/25 03:38:50;;;;;;;1.08;1.08;;;3.60;99.90;;;;;;5076686;28;20045;-82
2022/01/25 03:41:17;;;;;;;1.67;1.38;;;3.60;99.90;;;;;;5076093;28;20113;-82
2022/01/25 03:43:45;;;;;;;3.42;1.80;;;3.60;99.90;;;;;;5061547;28;20056;-82
2022/01/25 03:51:59;;;;;;;1.70;1.58;;;3.60;99.90;;;;;;5068995;28;20393;-82
2022/01/25 03:54:25;;;;;;;2.13;1.98;;;3.60;99.90;;;;;;5073085;28;20045;-83
2022/01/25 03:56:51;;;;;;;0.80;0.80;;;3.60;99.90;;;;;;5075134;28;20033;-83
2022/01/25 03:59:17;;;;;;;1.17;1.17;;;3.60;99.90;;;;;;5075384;28;20064;-83
2022/01/25 04:01:43;;;;;;;7.38;6.10;;;3.50;99.90;;;;;;5071033;28;20096;-83
2022/01/25 04:04:13;;;;;;;2.45;2.15;;;3.50;99.90;;;;;;5061196;28;20116;-83
2022/01/25 04:06:42;;;;;;;1.30;1.20;;;3.50;99.90;;;;;;5077437;28;20068;-82
2022/01/25 04:09:08;;;;;;;0.93;0.93;;;3.60;99.90;;;;;;5059562;28;20104;-82
2022/01/25 04:11:35;;;;;;;2.00;1.67;;;3.50;99.90;;;;;;5076839;28;20067;-82
2022/01/25 04:14:01;;;;;;;0.90;0.90;;;3.50;99.90;;;;;;5073564;28;20496;-82
2022/01/25 04:16:32;;;;;;;1.77;1.45;;;3.50;99.90;;;;;;5052696;28;20045;-82
2022/01/25 04:19:17;;;;;;;2.95;1.38;;;3.50;99.90;;;;;;5069933;28;20048;-82
2022/01/25 04:24:42;;;;;;;1.42;1.33;;;3.50;99.90;;;;;;5079326;28;20040;-83
2022/01/25 04:27:32;;;;;;;2.53;2.00;;;3.50;99.90;;;;;;5060872;28;20060;-83
2022/01/25 04:29:58;;;;;;;2.90;1.67;;;3.50;99.90;;;;;;5071590;28;20049;-83
2022/01/25 04:32:46;;;;;;;2.42;1.83;;;3.50;99.90;;;;;;5065290;28;20163;-83
2022/01/25 04:48:56;;;;;;;1.35;1.25;;;3.60;99.90;;;;;;5062348;28;20064;-82
2022/01/25 04:52:09;;;;;;;2.67;2.03;;;3.50;99.90;;;;;;5065669;28;20147;-82
2022/01/25 04:54:21;;;;;;;1.95;1.85;;;3.50;99.90;;;;;;5058281;28;20041;-82
2022/01/25 05:02:20;;;;;;;2.25;1.88;;;3.50;99.90;;;;;;5043846;28;20366;-82
2022/01/25 05:04:53;;;;;;;2.67;2.30;;;3.50;99.90;;;;;;5065177;28;20105;-82
2022/01/25 05:09:49;;;;;;;1.92;1.33;;;3.40;99.90;;;;;;5077394;28;20116;-83
2022/01/25 05:12:15;;;;;;;1.35;1.25;;;3.40;99.90;;;;;;5078905;28;20040;-83
2022/01/25 05:15:06;;;;;;;1.67;1.58;;;3.50;99.90;;;;;;5070655;28;20121;-83
2022/01/25 05:17:41;;;;;;;1.98;1.77;;;3.50;99.90;;;;;;5050778;28;20037;-83
2022/01/25 05:22:52;;;;;;;1.00;1.00;;;3.50;99.90;;;;;;5068621;28;20076;-83
2022/01/25 05:25:18;;;;;;;1.63;1.52;;;3.40;99.90;;;;;;5072996;28;20048;-82
2022/01/25 05:27:43;;;;;;;5.15;1.92;;;3.50;99.90;;;;;;5063640;28;20060;-82
2022/01/25 05:30:09;;;;;;;3.47;2.55;;;3.40;99.90;;;;;;5068231;28;20060;-83
2022/01/25 05:32:35;;;;;;;1.17;1.13;;;3.50;99.90;;;;;;5060341;28;20158;-83
2022/01/25 05:35:02;;;;;;;3.63;1.42;;;3.40;99.90;;;;;;5075413;28;20105;-82
2022/01/25 05:37:45;;;;;;;3.13;1.98;;;3.60;99.90;;;;;;5115194;27;20367;-82
2022/01/25 05:40:16;;;;;;;4.32;2.55;;;3.50;99.90;;;;;;5097811;28;20079;-82
2022/01/25 05:43:57;;;;;;;1.10;1.00;;;3.50;99.90;;;;;;5096015;28;20564;-82
2022/01/25 05:45:39;;;;;;;2.67;1.67;;;3.50;99.90;;;;;;5095089;28;20116;-82
2022/01/25 05:48:05;;;;;;;3.22;2.45;;;3.50;99.90;;;;;;5077114;28;20052;-82
2022/01/25 05:50:30;;;;;;;0.90;0.90;;;3.50;99.90;;;;;;5096348;28;20044;-83
2022/01/25 05:52:56;;;;;;;0.93;0.93;;;3.50;99.90;;;;;;5096456;28;20144;-83
2022/01/25 05:55:22;;;;;;;1.40;1.30;;;3.50;99.90;;;;;;5077959;28;20055;-82
2022/01/25 05:57:47;;;;;;;2.72;1.95;;;3.50;99.90;;;;;;5094276;28;20056;-83
2022/01/25 06:00:13;;;;;;;3.90;1.83;;;3.50;99.90;;;;;;5092357;28;20044;-82
2022/01/25 06:02:39;;;;;;;2.75;2.50;;;3.50;99.90;;;;;;5080338;28;20570;-83
2022/01/25 06:05:05;;;;;;;1.85;1.75;;;3.50;99.90;;;;;;5080630;28;20099;-83
2022/01/25 06:07:32;;;;;;;1.38;1.27;;;3.50;99.90;;;;;;5096324;28;20075;-83
2022/01/25 06:09:57;;;;;;;4.65;1.02;;;3.50;99.90;;;;;;5091138;28;20048;-83
2022/01/25 06:12:23;;;;;;;2.70;1.80;;;3.50;99.90;;;;;;5097203;28;20047;-82
2022/01/25 06:14:48;;;;;;;2.33;1.55;;;3.40;99.90;;;;;;5080116;28;20062;-82
2022/01/25 06:17:14;;;;;;;3.13;2.45;;;3.50;99.90;;;;;;5097120;28;20040;-82
2022/01/25 06:19:40;;;;;;;6.57;2.67;;;3.50;99.90;;;;;;5097923;28;20048;-82
2022/01/25 06:22:05;;;;;;;1.55;1.45;;;3.50;99.90;;;;;;5096392;28;20044;-82
2022/01/25 06:24:31;;;;;;;1.98;1.35;;;3.50;99.90;;;;;;5090672;28;20044;-82
2022/01/25 06:26:56;;;;;;;2.80;1.92;;;3.50;99.90;;;;;;5095325;28;20029;-82
2022/01/25 06:29:22;;;;;;;2.08;1.70;;;3.40;99.90;;;;;;5097054;28;20052;-83
2022/01/25 06:31:48;;;;;;;3.53;3.17;;;3.40;99.90;;;;;;5096153;28;20059;-83
2022/01/25 06:34:15;;;;;;;1.92;1.75;;;3.50;99.90;;;;;;5098458;28;20516;-83
2022/01/25 06:36:41;;;;;;;4.75;1.48;;;3.40;99.90;;;;;;5095802;28;20040;-83
2022/01/25 06:39:06;;;;;;;2.35;2.15;;;3.50;99.90;;;;;;5095235;28;20051;-83
2022/01/25 06:41:34;;;;;;;5.15;1.70;;;3.40;99.90;;;;;;5096049;28;20059;-82
2022/01/25 06:43:59;;;;;;;1.05;1.00;;;3.50;99.90;;;;;;5098256;28;20047;-83
2022/01/25 06:46:25;;;;;;;1.00;1.00;;;3.50;99.90;;;;;;5096621;28;20119;-83
2022/01/25 06:48:50;;;;;;;1.40;1.30;;;3.50;99.90;;;;;;5066772;28;20060;-83
2022/01/25 06:51:16;;;;;;;1.63;1.52;;;3.50;99.90;;;;;;5081490;28;20072;-83
2022/01/25 06:53:41;;;;;;;0.95;0.95;;;3.40;99.90;;;;;;5073663;28;20045;-83
2022/01/25 06:56:07;;;;;;;1.20;1.10;;;3.50;99.90;;;;;;5078813;28;20049;-83
2022/01/25 06:58:33;;;;;;;1.33;1.25;;;3.40;99.90;;;;;;5082526;28;20053;-83
2022/01/25 07:00:59;;;;;;;3.83;1.92;;;3.50;99.90;;;;;;5075528;28;20388;-82
2022/01/25 07:03:25;;;;;;;1.50;1.40;;;3.50;99.90;;;;;;5076736;28;20076;-82
2022/01/25 07:05:51;;;;;;;1.00;1.00;;;3.50;99.90;;;;;;5083716;28;20049;-85
2022/01/25 07:08:16;;;;;;;1.48;1.38;;;3.50;99.90;;;;;;5077154;28;20045;-83
2022/01/25 07:10:42;;;;;;;1.05;1.05;;;3.40;99.90;;;;;;5074430;28;20064;-83
2022/01/25 07:13:08;;;;;;;1.35;1.25;;;3.50;99.90;;;;;;5097573;28;20040;-83
2022/01/25 07:15:33;;;;;;;0.95;0.95;;;3.50;99.90;;;;;;5082562;28;20036;-84
2022/01/25 07:17:59;;;;;;;0.90;0.90;;;3.40;99.90;;;;;;5065476;28;20036;-85
2022/01/25 07:20:24;;;;;;;1.77;1.67;;;3.50;99.90;;;;;;5082388;28;20164;-84
2022/01/25 07:22:51;;;;;;;1.25;1.15;;;3.50;99.90;;;;;;5080982;28;20049;-84
2022/01/25 07:25:16;;;;;;;1.92;1.67;;;3.50;99.90;;;;;;5076272;28;20051;-84
2022/01/25 07:27:42;;;;;;;1.52;1.42;;;3.60;99.90;;;;;;5082136;28;20056;-85
2022/01/25 07:30:08;;;;;;;1.42;1.33;;;3.50;99.90;;;;;;5081784;28;20033;-85
2022/01/25 07:32:34;;;;;;;6.25;1.65;;;3.50;99.90;;;;;;5082137;28;20147;-84
2022/01/25 07:34:59;;;;;;;8.65;1.75;;;3.40;99.90;;;;;;5082106;28;20047;-84
2022/01/25 07:37:25;;;;;;;0.82;0.82;;;3.50;99.90;;;;;;5081293;28;20047;-84
2022/01/25 07:39:51;;;;;;;3.55;1.92;;;3.40;99.90;;;;;;5057608;28;20065;-83
2022/01/25 07:42:18;;;;;;;1.65;1.33;;;3.50;99.90;;;;;;5065535;28;20037;-84
2022/01/25 07:44:44;;;;;;;0.95;0.95;;;3.40;99.90;;;;;;5065462;28;20032;-84
2022/01/25 07:47:10;;;;;;;1.52;1.42;;;3.40;99.90;;;;;;5082063;28;20103;-84
2022/01/25 07:49:36;;;;;;;1.40;1.30;;;3.50;99.90;;;;;;5062685;28;20105;-85
2022/01/25 07:52:03;;;;;;;1.60;1.50;;;3.50;99.90;;;;;;5072980;28;20037;-85
2022/01/25 07:54:29;;;;;;;1.42;1.33;;;3.50;99.90;;;;;;5076128;28;20047;-84
2022/01/25 07:56:55;;;;;;;1.77;1.58;;;3.50;99.90;;;;;;5081669;28;20084;-84
2022/01/25 07:59:21;;;;;;;1.05;1.00;;;3.50;99.90;;;;;;5064149;28;20048;-85
2022/01/25 08:01:47;;;;;;;1.10;1.02;;;3.50;99.90;;;;;;5080615;28;20074;-84
2022/01/25 08:04:14;;;;;;;2.22;2.03;;;3.50;99.90;;;;;;5081224;28;20044;-84
2022/01/25 08:06:40;;;;;;;2.20;1.40;;;3.50;99.90;;;;;;5080676;28;20055;-84
2022/01/25 08:09:07;;;;;;;1.33;1.13;;;3.50;99.90;;;;;;5063879;28;20090;-84
2022/01/25 08:11:33;;;;;;;0.90;0.90;;;3.50;99.90;;;;;;5080921;28;20071;-84
2022/01/25 08:14:12;;;;;;;1.33;1.23;;;3.50;99.90;;;;;;5081123;28;20493;-84
2022/01/25 08:16:47;;;;;;;5.45;2.55;;;3.50;99.90;;;;;;5081121;28;20108;-84
2022/01/25 08:19:13;;;;;;;1.30;1.20;;;3.50;99.90;;;;;;5077229;28;20074;-84
2022/01/25 08:21:42;;;;;;;2.30;1.42;;;3.50;99.90;;;;;;5077519;28;20057;-84
2022/01/25 08:24:09;;;;;;;1.27;1.17;;;3.50;99.90;;;;;;5072299;28;20339;-85
2022/01/25 08:26:35;;;;;;;1.35;1.25;;;3.50;99.90;;;;;;5080362;28;20056;-85
2022/01/25 08:29:01;;;;;;;7.07;1.92;;;3.50;99.90;;;;;;5063669;28;20045;-84
2022/01/25 08:31:27;;;;;;;2.95;2.42;;;3.50;99.90;;;;;;5076441;28;20045;-85
2022/01/25 08:33:53;;;;;;;3.28;2.63;;;3.60;99.90;;;;;;5080116;28;20096;-84
2022/01/25 08:36:19;;;;;;;2.50;1.80;;;3.50;99.90;;;;;;5053080;28;20033;-85
2022/01/25 08:38:45;;;;;;;4.13;2.65;;;3.50;99.90;;;;;;5079334;28;20045;-84
2022/01/25 08:41:11;;;;;;;4.10;2.03;;;3.50;99.90;;;;;;5076350;28;20040;-85
2022/01/25 08:43:36;;;;;;;1.60;1.45;;;3.50;99.90;;;;;;5080242;28;20059;-84
2022/01/25 08:46:03;;;;;;;1.35;1.25;;;3.50;99.90;;;;;;5079281;28;20036;-85
2022/01/25 08:48:28;;;;;;;2.25;1.70;;;3.50;99.90;;;;;;5063140;28;20039;-85
2022/01/25 08:50:54;;;;;;;1.10;1.08;;;3.50;99.90;;;;;;5071567;28;20048;-84
2022/01/25 08:53:20;;;;;;;1.20;1.10;;;3.50;99.90;;;;;;5077233;28;20028;-85
2022/01/25 08:55:46;;;;;;;2.28;2.08;;;3.50;99.90;;;;;;5076956;28;20036;-85
2022/01/25 08:58:12;;;;;;;4.53;2.30;;;3.50;99.90;;;;;;5061600;28;20108;-86
2022/01/25 09:00:37;;;;;;;1.45;1.35;;;3.60;99.90;;;;;;5057455;28;20035;-86
2022/01/25 09:03:03;;;;;;;2.25;1.33;;;3.60;99.90;;;;;;5054001;28;20049;-85
2022/01/25 09:05:29;;;;;;;0.90;0.90;;;3.60;99.90;;;;;;5059375;28;20116;-86
2022/01/25 09:07:57;;;;;;;1.42;1.13;;;3.60;99.90;;;;;;5060776;28;20093;-85
2022/01/25 09:10:26;;;;;;;1.92;1.67;;;3.60;99.90;;;;;;5058660;28;20115;-85
2022/01/25 09:12:52;;;;;;;1.48;1.35;;;3.60;99.90;;;;;;5073402;28;20040;-86
2022/01/25 09:15:17;;;;;;;1.02;1.02;;;3.60;99.90;;;;;;5078791;28;20044;-86
2022/01/25 09:17:43;;;;;;;0.90;0.90;;;3.60;99.90;;;;;;5055392;28;20041;-85
2022/01/25 09:20:09;;;;;;;1.33;1.23;;;3.60;99.90;;;;;;5079843;28;20086;-85
2022/01/25 09:22:35;;;;;;;1.00;1.00;;;3.60;99.90;;;;;;5058474;28;20043;-84
2022/01/25 09:25:01;;;;;;;1.50;1.40;;;3.60;99.90;;;;;;5052645;28;20067;-85
2022/01/25 09:27:26;;;;;;;2.30;1.52;;;3.60;99.90;;;;;;5074261;28;20156;-84
2022/01/25 09:29:52;;;;;;;0.88;0.88;;;3.60;99.90;;;;;;5076226;28;20032;-83
2022/01/25 09:32:19;;;;;;;0.80;0.80;;;3.60;99.90;;;;;;5058670;28;20078;-84
2022/01/25 09:34:45;;;;;;;1.98;1.65;;;3.60;99.90;;;;;;5076442;28;20051;-84
2022/01/25 09:37:11;;;;;;;1.98;1.80;;;3.70;99.90;;;;;;5066964;28;20059;-84
2022/01/25 09:39:37;;;;;;;3.65;1.98;;;3.70;99.90;;;;;;5052568;28;20045;-85
2022/01/25 09:42:08;;;;;;;2.28;2.08;;;3.60;99.90;;;;;;5076340;28;20041;-83
2022/01/25 09:44:36;;;;;;;2.55;2.30;;;3.70;99.90;;;;;;5069817;28;20040;-84
2022/01/25 09:47:02;;;;;;;3.50;2.72;;;3.60;99.90;;;;;;5074279;28;20045;-86
2022/01/25 09:49:28;;;;;;;2.08;1.88;;;3.60;99.90;;;;;;5069577;28;20096;-85
2022/01/25 09:51:55;;;;;;;2.33;2.13;;;3.60;99.90;;;;;;5055562;28;20052;-84
2022/01/25 09:54:21;;;;;;;4.47;1.77;;;3.60;99.90;;;;;;5052742;28;20658;-86
2022/01/25 09:56:47;;;;;;;2.00;1.58;;;3.60;99.90;;;;;;5059670;28;20047;-86
2022/01/25 09:59:12;;;;;;;2.15;1.45;;;3.60;99.90;;;;;;5072107;28;20098;-86
2022/01/25 10:01:38;;;;;;;1.65;1.55;;;3.70;99.90;;;;;;5075962;28;20055;-85
2022/01/25 10:04:29;;;;;;;4.78;2.13;;;3.60;99.90;;;;;;5077357;28;20036;-86
2022/01/25 10:06:55;;;;;;;3.55;1.75;;;3.60;99.90;;;;;;5057659;28;20051;-87
2022/01/25 10:09:21;;;;;;;1.52;1.42;;;3.60;99.90;;;;;;5056390;28;20033;-86
2022/01/25 10:11:47;;;;;;;2.13;1.92;;;3.60;99.90;;;;;;5077046;28;20068;-84
2022/01/25 10:14:13;;;;;;;2.92;2.25;;;3.70;99.90;;;;;;5076544;28;20054;-84
2022/01/25 10:16:42;;;;;;;0.90;0.90;;;3.60;99.90;;;;;;5078162;28;20067;-84
2022/01/25 10:19:13;;;;;;;2.88;1.90;;;3.70;99.90;;;;;;5073408;28;20067;-84
2022/01/25 10:21:48;;;;;;;3.00;2.25;;;3.70;99.90;;;;;;5059102;28;20123;-83
2022/01/25 10:24:17;;;;;;;4.88;4.47;;;3.70;99.90;;;;;;5062622;28;20115;-83
2022/01/25 10:27:03;;;;;;;5.22;3.28;;;3.70;99.90;;;;;;5078834;28;20063;-84
2022/01/25 10:29:31;;;;;;;2.92;2.50;;;4.10;99.90;;;;;;5061330;28;20052;-86
2022/01/25 10:31:59;;;;;;;4.72;2.95;;;3.70;99.90;;;;;;5080267;28;20488;-86
2022/01/25 10:34:32;;;;;;;3.13;2.83;;;3.70;99.90;;;;;;5080450;28;20049;-81
2022/01/25 10:36:59;;;;;;;4.78;2.88;;;3.70;99.90;;;;;;5061915;28;20053;-81
2022/01/25 10:39:33;;;;;;;2.40;1.67;;;3.70;99.90;;;;;;5078043;28;20106;-84
2022/01/25 10:42:04;;;;;;;3.78;1.70;;;3.80;99.90;;;;;;5074115;28;20068;-82
2022/01/25 10:44:58;;;;;;;1.85;1.73;;;3.80;99.90;;;;;;5077507;28;20037;-83
2022/01/25 10:47:41;;;;;;;2.33;2.13;;;3.80;99.90;;;;;;5060414;28;20044;-84
2022/01/25 10:50:22;;;;;;;3.40;1.73;;;3.80;99.90;;;;;;5070388;28;21083;-83
2022/01/25 10:53:06;;;;;;;1.90;1.80;;;4.10;99.90;;;;;;5080982;28;20056;-83
2022/01/25 10:55:40;;;;;;;3.20;2.28;;;3.80;99.90;;;;;;5075615;28;20053;-82
2022/01/25 10:58:07;;;;;;;2.75;2.47;;;3.80;99.90;;;;;;5078716;28;20048;-83
2022/01/25 11:00:40;;;;;;;1.60;1.25;;;3.80;99.90;;;;;;5080753;28;20036;-83
2022/01/25 11:03:07;;;;;;;1.98;1.52;;;3.90;99.90;;;;;;5063303;28;20048;-83
2022/01/25 11:05:36;;;;;;;12.55;2.83;;;3.90;99.90;;;;;;5082233;28;20046;-82
2022/01/25 11:08:21;;;;;;;7.50;4.00;;;3.90;99.90;;;;;;5080792;28;20064;-85
2022/01/25 11:10:56;;;;;;;1.75;1.65;;;3.90;99.90;;;;;;5077773;28;20103;-85
2022/01/25 11:13:48;;;;;;;2.67;2.13;;;3.90;99.90;;;;;;5078554;28;20036;-84
2022/01/25 11:16:10;;;;;;;3.03;2.72;;;3.90;99.90;;;;;;5077016;28;20053;-85
2022/01/25 11:18:37;;;;;;;4.50;2.97;;;4.00;99.90;;;;;;5078402;28;20052;-85
2022/01/25 11:21:13;;;;;;;1.60;1.50;;;3.90;99.90;;;;;;5057621;28;20037;-85
2022/01/25 11:23:44;;;;;;;1.30;1.20;;;4.00;99.90;;;;;;5068908;28;20037;-85
2022/01/25 11:26:13;;;;;;;1.70;1.60;;;3.90;99.90;;;;;;5061873;28;20162;-85
2022/01/25 11:28:40;;;;;;;4.13;1.67;;;4.00;99.90;;;;;;5058911;28;20066;-85
2022/01/25 11:31:11;;;;;;;2.55;2.03;;;4.00;99.90;;;;;;5056517;28;20052;-85
2022/01/25 11:33:41;;;;;;;1.70;1.42;;;4.00;99.90;;;;;;5058440;28;20036;-85
2022/01/25 11:36:08;;;;;;;2.83;2.42;;;4.00;99.90;;;;;;5060990;28;20040;-84
2022/01/25 11:38:43;;;;;;;2.30;1.88;;;4.00;99.90;;;;;;5055319;28;20048;-84
2022/01/25 11:41:11;;;;;;;2.45;2.05;;;4.00;99.90;;;;;;5075803;28;20044;-86
2022/01/25 11:43:37;;;;;;;2.47;2.10;;;4.00;99.90;;;;;;5076819;28;20068;-84
2022/01/25 11:46:05;;;;;;;2.15;1.95;;;4.00;99.90;;;;;;5077020;28;20048;-84
2022/01/25 11:48:44;;;;;;;1.80;1.50;;;4.10;99.90;;;;;;5059513;28;20048;-84
2022/01/25 11:51:15;;;;;;;6.78;4.75;;;4.10;99.90;;;;;;5053089;28;20422;-84
2022/01/25 11:53:43;;;;;;;2.42;1.77;;;4.10;99.90;;;;;;5058526;28;20036;-83
2022/01/25 11:56:10;;;;;;;1.33;1.23;;;4.10;99.90;;;;;;5079482;28;20051;-84
2022/01/25 11:58:36;;;;;;;2.15;1.95;;;4.00;99.90;;;;;;5078209;28;20041;-83
2022/01/25 12:01:05;;;;;;;1.30;1.20;;;4.00;99.90;;;;;;5078065;28;20040;-83
2022/01/25 12:03:33;;;;;;;2.35;2.13;;;4.10;99.90;;;;;;5080079;28;20059;-84
2022/01/25 12:06:04;;;;;;;2.75;2.10;;;4.00;99.90;;;;;;5078830;28;20055;-83
2022/01/25 12:09:41;;;;;;;1.42;1.33;;;4.10;99.90;;;;;;5078970;28;20045;-84
2022/01/25 12:11:37;;;;;;;6.93;2.40;;;4.10;99.90;;;;;;5070219;28;20052;-82
2022/01/25 12:14:33;;;;;;;3.50;2.67;;;4.10;99.90;;;;;;5079777;28;20123;-83
2022/01/25 12:17:13;;;;;;;5.15;2.45;;;4.10;99.90;;;;;;5053474;28;20059;-83
2022/01/25 12:19:58;;;;;;;3.03;2.15;;;4.10;99.90;;;;;;5077812;28;20523;-84
2022/01/25 12:22:29;;;;;;;3.30;2.00;;;4.10;99.90;;;;;;5080204;28;20044;-83
2022/01/25 12:25:04;;;;;;;3.20;2.22;;;4.00;99.90;;;;;;5074667;28;20045;-83
2022/01/25 12:27:39;;;;;;;5.32;1.95;;;4.00;99.90;;;;;;5057282;28;20500;-82
2022/01/25 12:30:39;;;;;;;1.65;1.45;;;4.00;99.90;;;;;;5077105;28;20047;-81
2022/01/25 12:33:30;;;;;;;3.55;2.97;;;4.00;99.90;;;;;;5074120;28;20066;-85
2022/01/25 12:36:05;;;;;;;4.63;4.20;;;4.00;99.90;;;;;;5058846;28;20429;-85
2022/01/25 12:38:52;;;;;;;1.40;1.30;;;4.00;99.90;;;;;;5076482;28;20048;-84
2022/01/25 12:41:28;;;;;;;5.68;2.65;;;4.00;99.90;;;;;;5076741;28;20128;-83
2022/01/25 12:44:04;;;;;;;3.28;2.08;;;4.00;99.90;;;;;;5054536;28;20049;-84
2022/01/25 12:46:34;;;;;;;2.35;2.10;;;4.00;99.90;;;;;;5056382;28;20043;-84
2022/01/25 12:49:11;;;;;;;4.13;2.45;;;4.00;99.90;;;;;;5055892;28;20487;-84
2022/01/25 12:51:39;;;;;;;2.75;2.13;;;4.00;99.90;;;;;;5059948;28;20052;-85
2022/01/25 12:54:08;;;;;;;9.13;3.20;;;4.00;99.90;;;;;;5057638;28;20071;-84
2022/01/25 12:56:38;;;;;;;1.98;1.65;;;4.00;99.90;;;;;;5059382;28;20083;-84
2022/01/25 12:59:17;;;;;;;1.88;1.35;;;4.00;99.90;;;;;;5074231;28;20036;-85
2022/01/25 13:01:43;;;;;;;6.18;2.60;;;4.00;99.90;;;;;;5058739;28;20044;-87
2022/01/25 13:04:10;;;;;;;1.63;1.52;;;4.00;99.90;;;;;;5063140;28;20039;-85
2022/01/25 13:06:43;;;;;;;1.30;1.25;;;4.10;99.90;;;;;;5052751;28;20532;-84
2022/01/25 13:09:15;;;;;;;2.00;1.80;;;4.00;99.90;;;;;;5057601;28;20195;-83
2022/01/25 13:14:33;;;;;;;1.50;1.40;;;4.00;99.90;;;;;;5076135;28;20051;-88
2022/01/25 13:17:17;;;;;;;1.10;1.10;;;4.00;99.90;;;;;;5055020;28;20045;-87
2022/01/25 13:19:46;;;;;;;5.47;2.97;;;4.00;99.90;;;;;;5075908;28;20045;-87
2022/01/25 13:22:19;;;;;;;1.40;1.30;;;4.00;99.90;;;;;;5059317;28;20176;-88
2022/01/25 13:25:53;;;;;;;3.50;2.53;;;4.00;99.90;;;;;;5055237;28;20041;-87
2022/01/25 13:27:52;;;;;;;7.32;2.90;;;4.00;99.90;;;;;;5060544;28;20667;-87
2022/01/25 13:30:41;;;;;;;3.53;2.47;;;4.00;99.90;;;;;;5072800;28;20041;-86
2022/01/25 13:33:18;;;;;;;1.63;1.52;;;4.00;99.90;;;;;;5053918;28;20039;-85
2022/01/25 13:35:49;;;;;;;4.25;2.33;;;4.00;99.90;;;;;;5057674;28;20429;-85
2022/01/25 13:38:18;;;;;;;2.90;2.65;;;4.00;99.90;;;;;;5054853;28;20159;-85
2022/01/25 13:46:25;;;;;;;3.28;2.97;;;4.00;99.90;;;;;;5076710;28;20067;-83
2022/01/25 13:48:55;;;;;;;2.55;2.17;;;4.00;99.90;;;;;;5077212;28;20055;-84
2022/01/25 13:51:24;;;;;;;5.55;2.53;;;4.00;99.90;;;;;;5077552;28;20044;-84
2022/01/25 13:53:56;;;;;;;3.13;2.88;;;3.90;99.90;;;;;;5056677;28;20060;-87
2022/01/25 13:56:25;;;;;;;3.10;2.35;;;4.00;99.90;;;;;;5072156;28;20054;-84
2022/01/25 13:58:52;;;;;;;2.83;2.42;;;3.90;99.90;;;;;;5054391;28;20041;-83
2022/01/25 14:01:20;;;;;;;1.80;1.60;;;3.90;99.90;;;;;;5081542;28;20090;-86
2022/01/25 14:03:56;;;;;;;1.67;1.58;;;3.90;99.90;;;;;;5079785;28;20576;-86
2022/01/25 14:06:34;;;;;;;3.65;2.15;;;3.90;99.90;;;;;;5078011;28;20044;-86
2022/01/25 14:09:21;;;;;;;5.53;4.30;;;3.90;99.90;;;;;;5078806;28;20442;-85
2022/01/25 14:22:52;;;;;;;3.40;2.70;;;3.90;99.90;;;;;;5077586;28;20516;-87
2022/01/25 14:25:46;;;;;;;4.15;2.88;;;3.90;99.90;;;;;;5056388;28;20468;-87
2022/01/25 14:28:15;;;;;;;4.93;3.67;;;3.90;99.90;;;;;;5059718;28;20040;-84
2022/01/25 14:30:47;;;;;;;3.33;3.03;;;3.90;99.90;;;;;;5057495;28;20112;-87
2022/01/25 14:33:16;;;;;;;6.00;3.25;;;3.90;99.90;;;;;;5064694;28;20057;-83
2022/01/25 14:35:55;;;;;;;4.38;2.97;;;3.80;99.90;;;;;;5062374;28;20044;-83
2022/01/25 14:38:30;;;;;;;3.88;3.42;;;3.80;99.90;;;;;;5080050;28;20040;-84
2022/01/25 14:41:04;;;;;;;5.88;2.25;;;3.80;99.90;;;;;;5076644;28;20032;-84
2022/01/25 14:43:34;;;;;;;;;;;3.90;99.90;;;;;;5072916;28;20047;-87
2022/01/25 14:46:06;;;;;;;3.35;2.75;;;3.80;99.90;;;;;;5079407;28;19920;-85
2022/01/25 14:48:36;;;;;;;4.95;3.42;;;3.80;99.90;;;;;;5062844;28;20045;-83
2022/01/25 14:51:04;;;;;;;6.40;4.82;;;3.80;99.90;;;;;;5077441;28;20092;-85
2022/01/25 14:53:29;;;;;;;9.02;4.63;;;3.80;99.90;;;;;;5057714;28;20100;-85
2022/01/25 14:55:59;;;;;;;8.18;3.63;;;3.80;99.90;;;;;;5079748;28;20056;-85
2022/01/25 15:01:15;;;;;;;4.47;2.72;;;3.80;99.90;;;;;;5049566;28;20056;-87
2022/01/25 15:03:44;;;;;;;4.82;2.75;;;3.80;99.90;;;;;;5074482;28;20068;-86